KIWI

Details ICAO KIWI
Name Wiscasset
Region United States
Timezone America/New_York (UTC-5.0)
Plans Departing 3
Arriving 3
Stats Elevation 74 ft / 23 m (AMSL)
Location 43.961279° -69.712516°
Runways 2
Magnetic Variation 15.602° W
Sunrise 2017-12-16 12:08:45 UTC / 2017-12-16 07:08:45 Local
Sunset 2017-12-16 21:03:10 UTC / 2017-12-16 16:03:10 Local
Advertisement - Login to hide

Runways

ID Width Length Bearing (true) Bearing (mag) Surface Threshold Offset Overrun Length
25 75 ft / 23 m 3,394 ft / 1,034 m 231.62° 247.22° Asphalt 0 ft / 0 m 0 ft / 0 m
25R 49 ft / 15 m 2,107 ft / 642 m 231.31° 246.91° Grass 0 ft / 0 m 0 ft / 0 m
7 75 ft / 23 m 3,394 ft / 1,034 m 51.61° 67.21° Asphalt 0 ft / 0 m 0 ft / 0 m
7L 49 ft / 15 m 2,107 ft / 642 m 51.31° 66.91° Grass 0 ft / 0 m 0 ft / 0 m

Map

Weather


0- 5 10 15 20 25 30 35+ Temperature / ° C

Clouds and Precipitation
Forecast for 2017-12-17 00:00 UTC. Updated an hour ago

Ground ~20,000 ft ~40,000 ft Winds

METAR

KIWI 161953Z AUTO VRB03KT 10SM CLR M02/M10 A2986 RMK AO2 SLP113 T10171100

TAF

Not found

Frequencies

Recorded 135.72 MHz ASOS
Approach 118.15 MHz BRUNSWICK APP/DEP
Unicom 122.80 MHz CTAF/UNICOM
Warning: Do not use this data for real-world aviation or navigation. No guarantee of current accuracy is given.